Flight Track Log - Related Links

Times and Time Zones

All times are in EDT time to prevent confusion due to time zone crossing. See the UAL256 flight status page for this flight to view local times or setup timezone preferences in your user account.

Time Position Orientation Groundspeed Altitude Reporting Facility
EDT Latitude Longitude Course Direction KTS MPH feet Rate Location/Type
Tue 09:10:41 AM 40.7500 -74.1167 180° South 217 250 2,400  Level New TRACON
Tue 09:11:35 AM 40.7833 -74.1667 311° West 260 299 4,700 2,684 Climbing New TRACON
Tue 09:12:00 AM 40.7825 -74.5779 282° West  Level FlightAware
Tue 09:12:35 AM 40.8000 -74.2667 282° West 287 330 7,500  Level New TRACON
Tue 09:13:00 AM 40.8101 -74.7269 287° West  Level FlightAware
Tue 09:14:00 AM 40.8440 -74.8738 287° West  Level FlightAware
Tue 09:14:31 AM 40.8481 -74.4469 289° West 291 335 12,400  Level New Center
Tue 09:15:00 AM 40.8833 -75.0131 270° West  Level FlightAware
Tue 09:15:29 AM 40.9189 -74.5167 323° Northwest 300 345 14,000  Level New Center
Tue 09:16:00 AM 40.9110 -75.1500 180° South  Level FlightAware
Tue 09:16:31 AM 40.9444 -74.6253 287° West 306 352 15,200  Level New Center
Tue 09:17:31 AM 40.9422 -74.7597 269° West 341 392 16,700 908 Climbing New Center
Tue 09:18:30 AM 40.9339 -74.8828 265° West 374 430 17,000 151 Climbing New Center
Tue 09:19:30 AM 40.9267 -75.0225 266° West 388 447 17,000 850 Level New Center
Tue 09:20:30 AM 40.9150 -75.1756 264° West 383 441 18,700 1,736 Climbing New Center
Tue 09:21:31 AM 40.8867 -75.3164 255° West 388 447 20,500 1,831 Climbing New Center
Tue 09:22:28 AM 40.8561 -75.4597 254° West 393 452 22,300 1,815 Climbing New Center
Tue 09:23:30 AM 40.8189 -75.6025 251° West 398 458 24,100 1,672 Climbing New Center
Tue 09:24:30 AM 40.7839 -75.7481 252° West 414 476 25,700 1,388 Climbing New Center
Tue 09:25:31 AM 40.7481 -75.9017 253° West 425 489 26,900 1,289 Climbing New Center
Tue 09:26:31 AM 40.7097 -76.0603 252° West 442 509 28,300 1,261 Climbing New Center
Tue 09:27:30 AM 40.6717 -76.2133 252° West 448 516 29,400 1,109 Climbing New Center
Tue 09:28:30 AM 40.6844 -76.3842 276° West 453 521 30,500 1,373 Climbing New Center
Tue 09:29:28 AM 40.7094 -76.5558 281° West 464 534 32,100 1,412 Climbing New Center
Tue 09:30:29 AM 40.7328 -76.7167 281° West 464 534 33,300 1,140 Climbing New Center
Tue 09:31:29 AM 40.7578 -76.8833 281° West 464 534 34,400 885 Climbing New Center
Tue 09:32:31 AM 40.7842 -77.0528 282° West 464 534 35,100 750 Climbing New Center
Tue 09:33:29 AM 40.8067 -77.2167 280° West 469 540 35,900 458 Climbing New Center
Tue 09:34:29 AM 40.8275 -77.3697 280° West 469 540 36,000 38 Climbing New Center
Tue 09:36:09 AM 40.8661 -77.6697 280° West 465 535 36,000  Level Cleveland Center
Tue 09:37:09 AM 40.8869 -77.8419 279° West 465 535 36,000  Level Cleveland Center
Tue 09:38:09 AM 40.9097 -78.0114 280° West 470 541 36,000  Level Cleveland Center
Tue 09:39:09 AM 40.9322 -78.1864 280° West 477 549 36,000  Level Cleveland Center
Tue 09:40:09 AM 40.9564 -78.3589 281° West 482 555 36,000  Level Cleveland Center
Tue 09:41:09 AM 40.9764 -78.5314 279° West 482 555 36,000  Level Cleveland Center
Tue 09:42:09 AM 40.9961 -78.7014 279° West 482 555 36,000  Level Cleveland Center
Tue 09:43:09 AM 41.0175 -78.8742 279° West 482 555 36,000  Level Cleveland Center
Tue 09:44:09 AM 41.0386 -79.0442 279° West 482 555 36,000  Level Cleveland Center
Tue 09:45:09 AM 41.0597 -79.2172 279° West 482 555 36,000  Level Cleveland Center
Tue 09:46:09 AM 41.0783 -79.3878 278° West 482 555 36,000  Level Cleveland Center
Tue 09:47:09 AM 41.0986 -79.5608 279° West 482 555 36,000  Level Cleveland Center
Tue 09:48:09 AM 41.1189 -79.7342 279° West 482 555 36,000  Level Cleveland Center
Tue 09:49:09 AM 41.1347 -79.9106 277° West 482 555 36,000  Level Cleveland Center
Tue 09:50:09 AM 41.1542 -80.0839 279° West 482 555 36,000  Level Cleveland Center
Tue 09:51:09 AM 41.1736 -80.2550 279° West 482 555 36,000  Level Cleveland Center
Tue 09:52:09 AM 41.1906 -80.4342 277° West 482 555 36,000  Level Cleveland Center
Tue 09:53:09 AM 41.2094 -80.6053 278° West 482 555 36,000  Level Cleveland Center
Tue 09:54:09 AM 41.2261 -80.7819 277° West 482 555 36,000  Level Cleveland Center
Tue 09:55:09 AM 41.2422 -80.9558 277° West 477 549 36,000  Level Cleveland Center
Tue 09:56:09 AM 41.2583 -81.1133 278° West 482 555 36,000  Level Cleveland Center
Tue 09:57:09 AM 41.2761 -81.2878 278° West 482 555 36,000  Level Cleveland Center
Tue 09:58:09 AM 41.2978 -81.4814 279° West 482 555 36,000  Level Cleveland Center
Tue 09:59:09 AM 41.3128 -81.6583 276° West 482 555 36,000  Level Cleveland Center
Tue 10:00:09 AM 41.3297 -81.8358 277° West 482 555 36,000  Level Cleveland Center
Tue 10:01:09 AM 41.3444 -82.0103 276° West 482 555 36,000  Level Cleveland Center
Tue 10:02:09 AM 41.3586 -82.1958 276° West 493 567 36,000  Level Cleveland Center
Tue 10:03:09 AM 41.3706 -82.3733 275° West 494 568 36,000  Level Cleveland Center
Tue 10:04:09 AM 41.3806 -82.5314 275° West 494 568 36,000  Level Cleveland Center
Tue 10:05:09 AM 41.3919 -82.7117 275° West 494 568 36,000  Level Cleveland Center
Tue 10:06:09 AM 41.4072 -82.8894 277° West 488 562 36,000  Level Cleveland Center
Tue 10:07:09 AM 41.4222 -83.0697 276° West 488 562 36,000  Level Cleveland Center
Tue 10:08:09 AM 41.4369 -83.2478 276° West 488 562 36,000  Level Cleveland Center
Tue 10:09:09 AM 41.4514 -83.4256 276° West 483 556 36,000  Level Cleveland Center
Tue 10:10:09 AM 41.4678 -83.6039 277° West 488 562 36,000  Level Cleveland Center
Tue 10:11:09 AM 41.4817 -83.7819 276° West 488 562 36,000  Level Cleveland Center
Tue 10:12:09 AM 41.4953 -83.9572 276° West 480 552 36,000  Level Cleveland Center
Tue 10:13:09 AM 41.5150 -84.1358 278° West 486 559 36,000  Level Cleveland Center
Tue 10:15:36 AM 41.5811 -84.5756 282° West 479 551 36,000  Level Chicago Center
Tue 10:16:38 AM 41.6050 -84.7500 280° West 479 551 36,000  Level Chicago Center
Tue 10:17:40 AM 41.6286 -84.9233 280° West 478 550 36,000  Level Chicago Center
Tue 10:18:42 AM 41.6517 -85.0964 280° West 477 549 36,000  Level Chicago Center
Tue 10:19:44 AM 41.6744 -85.2681 280° West 475 547 36,000  Level Chicago Center
Tue 10:20:46 AM 41.6969 -85.4506 279° West 475 547 36,000  Level Chicago Center
Tue 10:21:48 AM 41.7211 -85.6394 280° West 479 551 36,000  Level Chicago Center
Tue 10:22:50 AM 41.7428 -85.8125 280° West 476 548 36,000  Level Chicago Center
Tue 10:23:53 AM 41.7642 -85.9850 279° West 474 545 36,000  Level Chicago Center
Tue 10:24:55 AM 41.7906 -86.1922 280° West 472 543 36,000  Level Chicago Center
Tue 10:25:57 AM 41.8117 -86.3653 279° West 472 543 36,000  Level Chicago Center
Tue 10:26:59 AM 41.8322 -86.5392 279° West 473 544 36,000  Level Chicago Center
Tue 10:28:01 AM 41.8542 -86.7192 279° West 473 544 36,000  Level Chicago Center
Tue 10:29:03 AM 41.8711 -86.8917 278° West 471 542 36,000  Level Chicago Center
Tue 10:30:05 AM 41.8808 -87.0650 274° West 470 541 36,000  Level Chicago Center
Tue 10:31:07 AM 41.8917 -87.2728 274° West 470 541 36,000  Level Chicago Center
Tue 10:32:09 AM 41.8986 -87.4439 273° West 465 535 36,000  Level Chicago Center
Tue 10:33:11 AM 41.9075 -87.6153 274° West 464 534 36,000  Level Chicago Center
Tue 10:34:13 AM 41.9156 -87.7883 274° West 468 539 36,000  Level Chicago Center
Tue 10:35:15 AM 41.9253 -87.9942 274° West 468 539 36,000  Level Chicago Center
Tue 10:36:17 AM 41.9344 -88.1658 274° West 466 536 36,000  Level Chicago Center
Tue 10:37:19 AM 41.9417 -88.3389 273° West 469 540 36,000  Level Chicago Center
Tue 10:38:21 AM 41.9483 -88.5108 273° West 468 539 36,000  Level Chicago Center
Tue 10:39:23 AM 41.9558 -88.6822 273° West 465 535 36,000  Level Chicago Center
Tue 10:40:25 AM 41.9628 -88.8881 273° West 465 535 36,000  Level Chicago Center
Tue 10:41:27 AM 41.9697 -89.0589 273° West 463 533 36,000  Level Chicago Center
Tue 10:42:29 AM 41.9761 -89.2303 273° West 464 534 36,000  Level Chicago Center
Tue 10:43:31 AM 41.9828 -89.4000 273° West 461 531 36,000  Level Chicago Center
Tue 10:44:33 AM 41.9878 -89.5689 272° West 458 527 36,000  Level Chicago Center
Tue 10:45:35 AM 41.9942 -89.7717 272° West 456 525 36,000  Level Chicago Center
Tue 10:46:37 AM 41.9997 -89.9306 273° West 456 525 36,000  Level Chicago Center
Tue 10:47:39 AM 42.0053 -90.0981 273° West 454 522 36,000  Level Chicago Center
Tue 10:48:41 AM 42.0122 -90.2639 273° West 450 518 36,000  Level Chicago Center
Tue 10:49:43 AM 42.0200 -90.4625 273° West 448 516 36,000  Level Chicago Center
Tue 10:50:45 AM 42.0256 -90.6272 273° West 447 514 36,000  Level Chicago Center
Tue 10:51:47 AM 42.0294 -90.7986 272° West 454 522 36,000  Level Chicago Center
Tue 10:52:48 AM 42.0350 -90.9600 273° West 448 516 36,000  Level Chicago Center
Tue 10:53:50 AM 42.0400 -91.1244 272° West 444 511 36,000  Level Chicago Center
Tue 10:54:52 AM 42.0444 -91.2889 272° West 443 510 36,000  Level Chicago Center
Tue 10:55:54 AM 42.0497 -91.4844 272° West 439 505 36,000  Level Chicago Center
Tue 10:56:56 AM 42.0539 -91.6481 272° West 439 505 36,000  Level Chicago Center
Tue 10:57:58 AM 42.0578 -91.8117 272° West 440 506 36,000  Level Chicago Center
Tue 10:59:00 AM 42.0619 -91.9753 272° West 438 504 36,000  Level Chicago Center
Tue 11:00:02 AM 42.0661 -92.1403 272° West 441 507 36,000  Level Chicago Center
Tue 11:01:03 AM 42.0683 -92.3036 271° West 440 506 36,000  Level Chicago Center
Tue 11:02:05 AM 42.0731 -92.4994 272° West 439 505 36,000  Level Chicago Center
Tue 11:03:07 AM 42.0750 -92.6636 271° West 439 505 36,000  Level Chicago Center
Tue 11:03:51 AM 42.0761 -92.7625 271° West 439 505 36,000  Level Minneapolis Center
Tue 11:04:53 AM 42.0794 -92.9600 271° West 442 509 36,000  Level Minneapolis Center
Tue 11:05:55 AM 42.0817 -93.1236 271° West 441 507 36,000  Level Minneapolis Center
Tue 11:06:57 AM 42.0833 -93.2856 271° West 437 503 36,000  Level Minneapolis Center
Tue 11:07:59 AM 42.0853 -93.4469 271° West 436 502 36,000  Level Minneapolis Center
Tue 11:09:01 AM 42.0775 -93.6067 266° West 433 498 36,000  Level Minneapolis Center
Tue 11:10:03 AM 42.0522 -93.7958 260° West 431 496 36,000  Level Minneapolis Center
Tue 11:11:05 AM 42.0342 -93.9372 260° West 429 494 36,000  Level Minneapolis Center
Tue 11:12:07 AM 42.0150 -94.0942 261° West 426 490 36,000  Level Minneapolis Center
Tue 11:13:09 AM 41.9894 -94.2833 260° West 428 493 36,000  Level Minneapolis Center
Tue 11:14:10 AM 41.9681 -94.4414 260° West 430 495 36,000  Level Minneapolis Center
Tue 11:15:12 AM 41.9483 -94.5969 260° West 425 489 36,000  Level Minneapolis Center
Tue 11:16:14 AM 41.9269 -94.7550 260° West 428 493 36,000  Level Minneapolis Center
Tue 11:17:16 AM 41.9050 -94.9108 259° West 426 490 36,000  Level Minneapolis Center
Tue 11:18:18 AM 41.8833 -95.0650 259° West 421 484 36,000  Level Minneapolis Center
Tue 11:19:20 AM 41.8569 -95.2514 259° West 426 490 36,000  Level Minneapolis Center
Tue 11:20:22 AM 41.8358 -95.4058 260° West 424 488 36,000  Level Minneapolis Center
Tue 11:21:24 AM 41.8144 -95.5603 260° West 424 488 36,000  Level Minneapolis Center
Tue 11:22:26 AM 41.7919 -95.7128 259° West 421 484 36,000  Level Minneapolis Center
Tue 11:23:28 AM 41.7692 -95.8653 259° West 421 484 36,000  Level Minneapolis Center
Tue 11:24:29 AM 41.7450 -96.0319 259° West 420 483 36,000  Level Minneapolis Center
Tue 11:25:31 AM 41.7203 -96.1981 259° West 419 482 36,000  Level Minneapolis Center
Tue 11:26:33 AM 41.6975 -96.3486 259° West 418 481 36,000  Level Minneapolis Center
Tue 11:27:35 AM 41.6747 -96.5000 259° West 417 480 36,000  Level Minneapolis Center
Tue 11:28:37 AM 41.6514 -96.6489 258° West 413 475 36,000  Level Minneapolis Center
Tue 11:29:39 AM 41.6278 -96.8017 258° West 419 482 36,000  Level Minneapolis Center
Tue 11:30:41 AM 41.6047 -96.9517 258° West 415 478 36,000  Level Minneapolis Center
Tue 11:31:42 AM 41.5756 -97.1339 258° West 419 482 36,000  Level Minneapolis Center
Tue 11:32:44 AM 41.5519 -97.2847 258° West 416 479 36,000  Level Minneapolis Center
Tue 11:33:46 AM 41.5281 -97.4356 258° West 416 479 36,000  Level Minneapolis Center
Tue 11:34:48 AM 41.5025 -97.5883 257° West 422 486 36,000  Level Minneapolis Center
Tue 11:35:50 AM 41.4769 -97.7394 257° West 420 483 36,000  Level Minneapolis Center
Tue 11:36:52 AM 41.4525 -97.8919 258° West 421 484 36,000  Level Minneapolis Center
Tue 11:37:54 AM 41.4228 -98.0733 258° West 419 482 36,000  Level Minneapolis Center
Tue 11:38:56 AM 41.3986 -98.2203 258° West 423 487 36,000  Level Minneapolis Center
Tue 11:39:58 AM 41.3736 -98.3728 258° West 423 487 36,000  Level Minneapolis Center
Tue 11:41:00 AM 41.3522 -98.5344 260° West 424 488 36,000  Level Minneapolis Center
Tue 11:42:02 AM 41.3322 -98.6878 260° West 423 487 36,000  Level Minneapolis Center
Tue 11:43:04 AM 41.3119 -98.8406 260° West 422 486 36,000  Level Minneapolis Center
Tue 11:43:26 AM 41.3036 -98.9203 262° West 422 486 36,000  Level Denver Center
Tue 11:44:28 AM 41.2831 -99.0706 260° West 421 484 36,000  Level Denver Center
Tue 11:45:30 AM 41.2631 -99.2244 260° West 423 487 36,000  Level Denver Center
Tue 11:46:32 AM 41.2433 -99.3750 260° West 421 484 36,000  Level Denver Center
Tue 11:47:34 AM 41.2186 -99.5578 260° West 420 483 36,000  Level Denver Center
Tue 11:48:36 AM 41.1972 -99.7111 260° West 421 484 36,000  Level Denver Center
Tue 11:49:38 AM 41.1767 -99.8633 260° West 420 483 36,000  Level Denver Center
Tue 11:50:40 AM 41.1556 -100.0164 260° West 421 484 36,000  Level Denver Center
Tue 11:51:42 AM 41.1344 -100.1689 260° West 421 484 36,000  Level Denver Center
Tue 11:52:44 AM 41.1119 -100.3203 259° West 420 483 36,000  Level Denver Center
Tue 11:53:46 AM 41.0903 -100.4719 259° West 419 482 36,000  Level Denver Center
Tue 11:54:48 AM 41.0631 -100.6556 259° West 421 484 36,000  Level Denver Center
Tue 11:55:50 AM 41.0386 -100.8069 258° West 421 484 36,000  Level Denver Center
Tue 11:56:52 AM 41.0000 -100.9550 251° West 422 486 36,000  Level Denver Center
Tue 11:57:54 AM 40.9664 -101.1047 253° West 424 488 36,000  Level Denver Center
Tue 11:58:56 AM 40.9300 -101.2528 252° West 424 488 36,000  Level Denver Center
Tue 11:59:59 AM 40.8964 -101.4003 253° West 421 484 36,000  Level Denver Center
Tue 12:01:01 PM 40.8539 -101.5783 253° West 422 486 36,000  Level Denver Center
Tue 12:02:03 PM 40.8183 -101.7272 253° West 424 488 36,000  Level Denver Center
Tue 12:03:05 PM 40.7831 -101.8753 253° West 423 487 36,000  Level Denver Center
Tue 12:04:07 PM 40.7494 -102.0158 253° West 425 489 36,000  Level Denver Center
Tue 12:05:09 PM 40.7075 -102.1881 252° West 421 484 36,000  Level Denver Center
Tue 12:06:11 PM 40.6722 -102.3358 253° West 420 483 36,000  Level Denver Center
Tue 12:07:13 PM 40.6347 -102.4833 252° West 420 483 36,000  Level Denver Center
Tue 12:08:15 PM 40.5983 -102.6311 252° West 422 486 36,000  Level Denver Center
Tue 12:09:17 PM 40.5606 -102.7783 251° West 423 487 36,000  Level Denver Center
Tue 12:10:19 PM 40.5250 -102.9275 253° West 426 490 36,000  Level Denver Center
Tue 12:11:21 PM 40.4867 -103.0756 251° West 426 490 36,000  Level Denver Center
Tue 12:12:23 PM 40.4411 -103.2511 251° West 430 495 36,000  Level Denver Center
Tue 12:13:25 PM 40.4033 -103.4003 252° West 428 493 36,000  Level Denver Center
Tue 12:14:27 PM 40.3650 -103.5494 251° West 429 494 36,000  Level Denver Center
Tue 12:15:29 PM 40.3261 -103.7003 251° West 434 499 36,000  Level Denver Center
Tue 12:16:31 PM 40.2878 -103.8528 252° West 436 502 36,000  Level Denver Center
Tue 12:17:33 PM 40.2481 -104.0033 251° West 433 498 36,000  Level Denver Center
Tue 12:18:35 PM 40.2025 -104.1772 251° West 432 497 36,000  Level Denver Center
Tue 12:19:37 PM 40.1625 -104.3258 251° West 428 493 36,000  Level Denver Center
Tue 12:20:39 PM 40.1217 -104.4747 250° West 432 497 36,000  Level Denver Center
Tue 12:21:42 PM 40.0814 -104.6239 251° West 433 498 36,000  Level Denver Center
Tue 12:22:44 PM 40.0414 -104.7725 251° West 434 499 36,000  Level Denver Center
Tue 12:23:46 PM 40.0014 -104.9178 250° West 425 489 36,000  Level Denver Center
Tue 12:24:48 PM 39.9547 -105.0883 250° West 424 488 36,000  Level Denver Center
Tue 12:25:50 PM 39.9139 -105.2331 250° West 425 489 36,000  Level Denver Center
Tue 12:26:52 PM 39.8739 -105.3772 250° West 420 483 36,000  Level Denver Center
Tue 12:27:54 PM 39.8319 -105.5236 250° West 427 491 36,000  Level Denver Center
Tue 12:28:56 PM 39.7903 -105.6678 249° West 425 489 36,000  Level Denver Center
Tue 12:29:58 PM 39.7500 -105.8125 250° West 431 496 36,000  Level Denver Center
Tue 12:31:00 PM 39.7111 -105.9514 250° West 412 474 36,000  Level Denver Center
Tue 12:32:02 PM 39.6628 -106.1178 249° West 418 481 36,000  Level Denver Center
Tue 12:33:04 PM 39.6303 -106.2375 251° West 415 478 36,000  Level Denver Center
Tue 12:34:06 PM 39.5811 -106.4056 249° West 415 478 36,000  Level Denver Center
Tue 12:35:08 PM 39.5392 -106.5500 249° West 410 472 36,000  Level Denver Center
Tue 12:36:11 PM 39.5000 -106.6867 250° West 423 487 36,000  Level Denver Center
Tue 12:37:12 PM 39.4533 -106.8419 249° West 417 480 36,000  Level Denver Center
Tue 12:38:15 PM 39.4161 -106.9775 250° West 418 481 36,000  Level Denver Center
Tue 12:39:17 PM 39.3839 -107.1133 253° West 414 476 36,000  Level Denver Center
Tue 12:40:19 PM 39.3436 -107.2728 252° West 417 480 36,000  Level Denver Center
Tue 12:41:21 PM 39.3081 -107.4092 251° West 418 481 36,000  Level Denver Center
Tue 12:42:23 PM 39.2683 -107.5683 252° West 417 480 36,000  Level Denver Center
Tue 12:43:25 PM 39.2328 -107.7050 251° West 420 483 36,000  Level Denver Center
Tue 12:44:27 PM 39.1925 -107.8631 252° West 415 478 36,000  Level Denver Center
Tue 12:45:29 PM 39.1572 -108.0000 252° West 417 480 36,000  Level Denver Center
Tue 12:46:31 PM 39.1156 -108.1594 251° West 420 483 36,000  Level Denver Center
Tue 12:47:33 PM 39.0806 -108.2939 251° West 414 476 36,000  Level Denver Center
Tue 12:48:35 PM 39.0381 -108.4519 251° West 417 480 36,000  Level Denver Center
Tue 12:49:37 PM 39.0025 -108.5878 251° West 416 479 36,000  Level Denver Center
Tue 12:50:39 PM 38.9661 -108.7219 251° West 414 476 36,000  Level Denver Center
Tue 12:51:41 PM 38.9233 -108.8803 251° West 417 480 36,000  Level Denver Center
Tue 12:52:43 PM 38.8881 -109.0142 251° West 413 475 36,000  Level Denver Center
Tue 12:53:45 PM 38.8450 -109.1725 251° West 418 481 36,000  Level Denver Center
Tue 12:54:47 PM 38.8092 -109.3053 251° West 412 474 36,000  Level Denver Center
Tue 12:55:49 PM 38.7653 -109.4611 250° West 414 476 36,000  Level Denver Center
Tue 12:56:51 PM 38.7289 -109.5931 251° West 412 474 36,000  Level Denver Center
Tue 12:57:53 PM 38.6861 -109.7472 250° West 412 474 36,000  Level Denver Center
Tue 12:59:10 PM 38.6358 -109.9264 250° West 419 482 36,000  Level Denver Center
Tue 01:00:12 PM 38.5986 -110.0592 250° West 416 479 36,000  Level Denver Center
Tue 01:01:03 PM 38.5842 -110.1775 261° West 425 489 36,000  Level Salt Center
Tue 01:02:05 PM 38.6261 -110.3372 289° West 427 491 36,000  Level Salt Center
Tue 01:03:06 PM 38.6692 -110.4742 292° West 429 494 36,000  Level Salt Center
Tue 01:04:08 PM 38.7172 -110.6364 291° West 434 499 36,000  Level Salt Center
Tue 01:05:09 PM 38.7608 -110.7764 292° West 438 504 36,000  Level Salt Center
Tue 01:06:11 PM 38.7561 -110.9225 268° West 438 504 36,000  Level Salt Center
Tue 01:07:12 PM 38.6792 -111.0642 235° Southwest 422 486 36,000  Level Salt Center
Tue 01:08:14 PM 38.6019 -111.1789 229° Southwest 426 490 36,000  Level Salt Center
Tue 01:09:15 PM 38.5253 -111.2928 229° Southwest 423 487 36,000  Level Salt Center
Tue 01:10:17 PM 38.4500 -111.4092 230° Southwest 426 490 36,000  Level Salt Center
Tue 01:11:19 PM 38.3728 -111.5208 229° Southwest 422 486 36,000  Level Salt Center
Tue 01:12:20 PM 38.2967 -111.6356 230° Southwest 422 486 36,000  Level Salt Center
Tue 01:13:22 PM 38.2197 -111.7469 229° Southwest 421 484 36,000  Level Salt Center
Tue 01:14:23 PM 38.1447 -111.8572 229° Southwest 414 476 36,000  Level Salt Center
Tue 01:15:25 PM 38.0542 -111.9903 229° Southwest 415 478 36,000  Level Salt Center
Tue 01:16:27 PM 37.9800 -112.0994 229° Southwest 411 473 36,000  Level Salt Center
Tue 01:17:28 PM 37.9050 -112.2081 229° Southwest 410 472 36,000  Level Salt Center
Tue 01:18:30 PM 37.8286 -112.3172 228° Southwest 413 475 36,000  Level Salt Center
Tue 01:19:32 PM 37.7528 -112.4261 229° Southwest 412 474 36,000  Level Salt Center
Tue 01:20:33 PM 37.6761 -112.5358 229° Southwest 415 478 36,000  Level Salt Center
Tue 01:21:35 PM 37.5994 -112.6464 229° Southwest 415 478 36,000  Level Salt Center
Tue 01:22:36 PM 37.5208 -112.7578 228° Southwest 415 478 36,000  Level Salt Center
Tue 01:23:38 PM 37.4408 -112.8700 228° Southwest 418 481 36,000  Level Salt Center
Tue 01:24:40 PM 37.3628 -112.9806 228° Southwest 419 482 36,000  Level Salt Center
Tue 01:25:41 PM 37.2697 -113.1119 228° Southwest 418 481 36,000  Level Salt Center
Tue 01:26:43 PM 37.1928 -113.2206 228° Southwest 417 480 36,000  Level Salt Center
Tue 01:27:45 PM 37.1147 -113.3294 228° Southwest 419 482 36,000  Level Salt Center
Tue 01:28:46 PM 37.0378 -113.4375 228° Southwest 416 479 36,000  Level Salt Center
Tue 01:29:01 PM 37.0222 -113.4583 227° Southwest 416 479 36,000  Level Los Center
Tue 01:30:03 PM 36.9447 -113.5667 228° Southwest 418 481 36,000  Level Los Center
Tue 01:31:05 PM 36.8681 -113.6742 228° Southwest 416 479 36,000  Level Los Center
Tue 01:32:07 PM 36.7758 -113.8039 228° Southwest 416 479 36,000  Level Los Center
Tue 01:33:09 PM 36.6983 -113.9103 228° Southwest 416 479 36,000  Level Los Center
Tue 01:34:11 PM 36.6206 -114.0178 228° Southwest 416 479 36,000  Level Los Center
Tue 01:35:13 PM 36.5433 -114.1233 228° Southwest 413 475 36,000  Level Los Center
Tue 01:36:15 PM 36.4672 -114.2272 228° Southwest 413 475 36,000  Level Los Center
Tue 01:37:17 PM 36.3750 -114.3522 228° Southwest 409 471 36,000  Level Los Center
Tue 01:38:19 PM 36.2986 -114.4569 228° Southwest 409 471 36,000  Level Los Center
Tue 01:39:21 PM 36.2222 -114.5617 228° Southwest 408 470 36,000  Level Los Center
Tue 01:40:23 PM 36.1450 -114.6658 227° Southwest 408 470 36,000  Level Los Center
Tue 01:41:25 PM 36.0658 -114.7697 227° Southwest 410 472 36,000  Level Los Center
Tue 01:42:28 PM 35.9889 -114.8728 227° Southwest 408 470 36,000  Level Los Center
Tue 01:43:30 PM 35.9117 -114.9778 228° Southwest 410 472 36,000  Level Los Center
Tue 01:44:32 PM 35.8203 -115.1033 228° Southwest 410 472 36,000  Level Los Center
Tue 01:45:34 PM 35.7428 -115.2086 228° Southwest 412 474 36,000  Level Los Center
Tue 01:46:36 PM 35.6656 -115.3122 227° Southwest 411 473 36,000  Level Los Center
Tue 01:47:38 PM 35.5900 -115.4169 228° Southwest 409 471 36,000  Level Los Center
Tue 01:48:40 PM 35.5119 -115.5211 227° Southwest 411 473 36,000  Level Los Center
Tue 01:49:42 PM 35.4375 -115.6222 228° Southwest 411 473 36,000  Level Los Center
Tue 01:50:44 PM 35.3594 -115.7233 227° Southwest 410 472 36,000  Level Los Center
Tue 01:51:46 PM 35.2669 -115.8456 227° Southwest 408 470 36,000  Level Los Center
Tue 01:52:48 PM 35.1911 -115.9492 228° Southwest 409 471 36,000 -336 Level Los Center
Tue 01:53:51 PM 35.1125 -116.0508 227° Southwest 410 472 35,300 -816 Descending Los Center
Tue 01:54:53 PM 35.0347 -116.1531 227° Southwest 412 474 34,300 -968 Descending Los Center
Tue 01:55:55 PM 34.9597 -116.2514 227° Southwest 399 459 33,300 -968 Descending Los Center
Tue 01:56:57 PM 34.8839 -116.3500 227° Southwest 398 458 32,300 -1,065 Descending Los Center
Tue 01:57:59 PM 34.7922 -116.4683 227° Southwest 399 459 31,100 -1,258 Descending Los Center
Tue 01:59:01 PM 34.7039 -116.5517 218° Southwest 398 458 29,700 -1,452 Descending Los Center
Tue 02:00:03 PM 34.6139 -116.6356 218° Southwest 405 466 28,100 -1,645 Descending Los Center
Tue 02:01:05 PM 34.5247 -116.7189 218° Southwest 403 464 26,300 -1,790 Descending Los Center
Tue 02:02:07 PM 34.4406 -116.7978 218° Southwest 387 445 24,400 -1,742 Descending Los Center
Tue 02:03:09 PM 34.3561 -116.8753 217° Southwest 382 440 22,700 -1,645 Descending Los Center
Tue 02:04:11 PM 34.2739 -116.9511 217° Southwest 373 429 21,000 -1,790 Descending Los Center
Tue 02:05:13 PM 34.1772 -117.0414 218° Southwest 366 421 19,000 -1,582 Descending Los Center
Tue 02:06:01 PM 34.1167 -117.1000 219° Southwest 377 434 18,100 -1,156 Descending Southern TRACON
Tue 02:07:02 PM 34.0667 -117.2167 243° Southwest 374 430 16,900 -1,587 Descending Southern TRACON
Tue 02:08:02 PM 34.0333 -117.3333 251° West 360 414 14,900 -2,200 Descending Southern TRACON
Tue 02:09:02 PM 34.0333 -117.4500 270° West 350 403 12,500 -2,200 Descending Southern TRACON
Tue 02:10:02 PM 34.0167 -117.5667 260° West 370 426 10,500 -1,250 Descending Southern TRACON
Tue 02:11:02 PM 34.0000 -117.6833 260° West 315 362 10,000 -645 Descending Southern TRACON
Tue 02:12:03 PM 34.0000 -117.7667 270° West 268 308 9,200 -1,091 Descending Southern TRACON
Tue 02:13:03 PM 33.9833 -117.8667 259° West 271 312 7,800 -1,050 Descending Southern TRACON
Tue 02:14:03 PM 33.9833 -117.9500 270° West 257 296 7,100 -950 Descending Southern TRACON
Tue 02:15:03 PM 33.9667 -118.0333 256° West 233 268 5,900 -1,150 Descending Southern TRACON
Tue 02:16:03 PM 33.9667 -118.1000 270° West 234 269 4,800 -1,097 Descending Southern TRACON
Tue 02:16:36 PM 33.9622 -118.1408 263° West 232 267 4,200 -1,091 Descending Los Center

Login

Don't have an account? Register now (free) for customized features, flight alerts, and more!